Time;durP1;ratioP1;P1;durP2;ratioP2;P2;SDS_P1;SDS_P2;PMS_P1;PMS_P2;Temp;Humidity;BMP_temperature;BMP_pressure;BME280_temperature;BME280_humidity;BME280_pressure;Samples;Min_cycle;Max_cycle;Signal;HPM_P1;HPM_P2
2021/12/28 00:02:05;;;;;;;23.60;16.97;;;3.70;99.90;;;;;;5008343;28;20371;-34
2021/12/28 00:04:31;;;;;;;23.67;17.03;;;3.70;99.90;;;;;;5002769;28;20046;-31
2021/12/28 00:06:57;;;;;;;26.23;17.77;;;3.80;99.90;;;;;;4993980;28;20137;-31
2021/12/28 00:09:22;;;;;;;22.93;16.50;;;3.80;99.90;;;;;;5012119;28;20081;-31
2021/12/28 00:11:48;;;;;;;27.47;17.27;;;3.80;99.90;;;;;;5029844;28;20576;-31
2021/12/28 00:14:14;;;;;;;23.97;17.57;;;3.80;99.90;;;;;;5026492;28;20081;-31
2021/12/28 00:19:28;;;;;;;24.73;17.37;;;3.80;99.90;;;;;;4963174;28;20062;-31
2021/12/28 00:21:54;;;;;;;25.53;17.70;;;3.90;99.90;;;;;;4992415;28;20072;-31
2021/12/28 00:24:19;;;;;;;24.13;17.40;;;3.90;99.90;;;;;;4992859;28;20450;-31
2021/12/28 00:26:45;;;;;;;24.27;17.00;;;3.90;99.90;;;;;;4975077;28;20459;-31
2021/12/28 00:29:11;;;;;;;24.20;17.17;;;3.90;99.90;;;;;;4989473;28;20081;-31
2021/12/28 00:31:36;;;;;;;27.77;17.17;;;3.90;99.90;;;;;;4998719;28;20107;-31
2021/12/28 00:34:02;;;;;;;25.43;17.63;;;3.90;99.90;;;;;;4989591;28;20122;-31
2021/12/28 00:36:28;;;;;;;25.40;17.30;;;3.90;99.90;;;;;;4970754;28;21030;-31
2021/12/28 00:38:54;;;;;;;25.67;17.83;;;4.00;99.90;;;;;;4967722;28;20466;-31
2021/12/28 00:41:20;;;;;;;25.27;17.43;;;3.90;99.90;;;;;;4970649;28;20046;-31
2021/12/28 00:43:46;;;;;;;26.60;18.07;;;4.00;99.90;;;;;;4970030;28;20054;-31
2021/12/28 00:46:12;;;;;;;25.07;17.53;;;4.00;99.90;;;;;;4944091;28;20131;-31
2021/12/28 00:48:38;;;;;;;24.87;17.30;;;3.80;99.90;;;;;;4975135;28;20042;-31
2021/12/28 00:51:05;;;;;;;26.50;17.40;;;3.90;99.90;;;;;;4990144;28;20460;-31
2021/12/28 00:53:30;;;;;;;25.33;17.33;;;4.00;99.90;;;;;;4989223;28;20049;-31
2021/12/28 00:55:56;;;;;;;25.73;17.63;;;4.00;99.90;;;;;;4990097;28;20124;-31
2021/12/28 00:58:22;;;;;;;27.03;17.40;;;4.00;99.90;;;;;;4972403;28;20446;-31
2021/12/28 01:00:49;;;;;;;23.90;17.33;;;4.00;99.90;;;;;;4987628;28;20141;-31
2021/12/28 01:03:15;;;;;;;28.70;19.23;;;4.10;99.90;;;;;;4989086;28;20050;-30
2021/12/28 01:05:42;;;;;;;25.07;17.87;;;4.00;99.90;;;;;;4981368;28;20133;-32
2021/12/28 01:08:08;;;;;;;26.67;18.57;;;4.00;99.90;;;;;;4973324;28;20178;-31
2021/12/28 01:10:47;;;;;;;27.90;17.77;;;4.00;99.90;;;;;;4976865;28;20515;-31
2021/12/28 01:13:13;;;;;;;25.63;18.87;;;4.00;99.90;;;;;;4969227;28;20055;-31
2021/12/28 01:15:40;;;;;;;25.20;18.60;;;4.00;99.90;;;;;;4983754;28;20048;-31
2021/12/28 01:18:06;;;;;;;28.00;18.73;;;4.00;99.90;;;;;;4955219;28;20070;-31
2021/12/28 01:20:32;;;;;;;26.93;19.17;;;4.10;99.90;;;;;;4989524;28;20084;-31
2021/12/28 01:22:59;;;;;;;26.73;19.13;;;4.10;99.90;;;;;;4965780;28;20053;-31
2021/12/28 01:25:25;;;;;;;25.17;19.10;;;4.10;99.90;;;;;;4970228;28;20166;-31
2021/12/28 01:27:51;;;;;;;28.70;18.97;;;4.10;99.90;;;;;;4953677;28;20069;-31
2021/12/28 01:30:20;;;;;;;29.70;19.57;;;4.10;99.90;;;;;;4970029;28;20057;-31
2021/12/28 01:32:47;;;;;;;29.40;21.43;;;4.10;99.90;;;;;;4995503;28;20042;-31
2021/12/28 01:35:17;;;;;;;31.90;21.13;;;4.10;99.90;;;;;;5008767;28;20050;-31
2021/12/28 01:37:43;;;;;;;33.27;20.60;;;4.10;99.90;;;;;;4975502;28;21004;-31
2021/12/28 01:40:16;;;;;;;31.97;21.30;;;4.10;99.90;;;;;;4991307;28;20451;-31
2021/12/28 01:42:57;;;;;;;32.10;21.93;;;4.20;99.90;;;;;;5007819;28;20054;-31
2021/12/28 01:45:44;;;;;;;33.23;22.80;;;4.20;99.90;;;;;;5008796;28;20073;-31
2021/12/28 01:48:14;;;;;;;35.07;23.83;;;4.20;99.90;;;;;;4965893;28;20041;-31
2021/12/28 01:50:40;;;;;;;32.70;22.13;;;4.20;99.90;;;;;;4971291;28;20050;-31
2021/12/28 01:53:07;;;;;;;36.40;22.53;;;4.20;99.90;;;;;;4988287;28;20352;-31
2021/12/28 01:55:34;;;;;;;36.30;25.03;;;4.20;99.90;;;;;;4971260;28;20050;-31
2021/12/28 01:58:00;;;;;;;35.30;24.63;;;4.20;99.90;;;;;;4972458;28;20073;-31
2021/12/28 02:00:26;;;;;;;39.70;26.03;;;4.30;99.90;;;;;;4993850;28;20052;-31
2021/12/28 02:02:52;;;;;;;39.20;26.63;;;4.30;99.90;;;;;;4989794;28;20054;-31
2021/12/28 02:05:18;;;;;;;45.77;27.40;;;4.30;99.90;;;;;;4994504;28;20487;-31
2021/12/28 02:07:44;;;;;;;40.07;27.37;;;4.30;99.90;;;;;;4972429;28;20384;-31
2021/12/28 02:10:10;;;;;;;38.87;26.37;;;4.30;99.90;;;;;;5015522;28;20041;-31
2021/12/28 02:12:36;;;;;;;42.20;27.00;;;4.30;99.90;;;;;;5026838;28;20037;-31
2021/12/28 02:15:06;;;;;;;47.93;28.37;;;4.30;99.90;;;;;;5018727;28;20128;-31
2021/12/28 02:17:35;;;;;;;49.97;29.37;;;4.30;99.90;;;;;;4974013;28;20378;-30
2021/12/28 02:20:08;;;;;;;50.60;29.53;;;4.40;99.90;;;;;;4990224;28;20049;-31
2021/12/28 02:22:34;;;;;;;49.23;30.43;;;4.40;99.90;;;;;;4987542;28;20046;-31
2021/12/28 02:25:00;;;;;;;49.87;29.87;;;4.40;99.90;;;;;;4988465;28;20043;-31
2021/12/28 02:27:30;;;;;;;58.23;32.13;;;4.40;99.90;;;;;;4972201;28;20034;-31
2021/12/28 02:29:56;;;;;;;51.30;31.60;;;4.50;99.90;;;;;;4988388;28;20532;-31
2021/12/28 02:32:26;;;;;;;61.37;33.97;;;4.50;99.90;;;;;;4987464;28;20510;-31
2021/12/28 02:34:52;;;;;;;58.83;34.27;;;4.50;99.90;;;;;;4988444;28;20573;-28
2021/12/28 02:37:17;;;;;;;66.87;35.60;;;4.50;99.90;;;;;;4973077;28;20117;-28
2021/12/28 02:39:45;;;;;;;64.80;36.03;;;4.60;99.90;;;;;;4971008;28;20401;-28
2021/12/28 02:42:11;;;;;;;60.97;34.17;;;4.60;99.90;;;;;;4987755;28;20053;-29
2021/12/28 02:44:37;;;;;;;72.87;36.43;;;4.60;99.90;;;;;;4986762;28;20050;-28
2021/12/28 02:47:03;;;;;;;64.27;34.73;;;4.60;99.90;;;;;;4979888;28;20469;-28
2021/12/28 02:49:28;;;;;;;76.07;38.13;;;4.70;99.90;;;;;;4989567;28;20491;-28
2021/12/28 02:51:54;;;;;;;72.10;36.77;;;4.70;99.90;;;;;;4988376;28;20489;-28
2021/12/28 02:54:20;;;;;;;73.37;37.30;;;4.70;99.90;;;;;;4987489;28;20061;-29
2021/12/28 02:56:46;;;;;;;79.30;38.20;;;4.70;99.90;;;;;;4972713;28;20137;-28
2021/12/28 02:59:12;;;;;;;61.60;36.13;;;4.70;99.90;;;;;;4987179;28;20081;-28
2021/12/28 03:01:40;;;;;;;74.80;37.60;;;4.70;99.90;;;;;;5002985;28;20081;-28
2021/12/28 03:04:08;;;;;;;78.33;35.73;;;4.80;99.90;;;;;;5002761;28;20064;-29
2021/12/28 03:06:36;;;;;;;70.50;38.33;;;4.80;99.90;;;;;;4974284;28;20051;-28
2021/12/28 03:09:05;;;;;;;67.80;35.77;;;4.80;99.90;;;;;;4975903;28;20054;-28
2021/12/28 03:11:31;;;;;;;65.20;35.73;;;4.80;99.90;;;;;;5027757;28;20045;-28
2021/12/28 03:13:59;;;;;;;66.57;35.73;;;4.70;99.90;;;;;;5025992;28;20060;-29
2021/12/28 03:16:27;;;;;;;79.37;38.93;;;4.80;99.90;;;;;;4977462;28;20517;-29
2021/12/28 03:18:53;;;;;;;67.00;37.20;;;4.80;99.90;;;;;;4985932;28;20038;-28
2021/12/28 03:21:21;;;;;;;78.23;37.97;;;4.80;99.90;;;;;;5007548;28;20121;-28
2021/12/28 03:23:47;;;;;;;69.47;37.80;;;4.80;99.90;;;;;;4980807;28;20048;-28
2021/12/28 03:26:14;;;;;;;71.27;36.37;;;4.80;99.90;;;;;;4982533;28;20046;-29
2021/12/28 03:28:41;;;;;;;89.83;40.77;;;4.90;99.90;;;;;;4984492;28;20521;-28
2021/12/28 03:31:11;;;;;;;73.50;38.10;;;4.90;99.90;;;;;;4991227;28;20100;-29
2021/12/28 03:33:39;;;;;;;80.53;37.80;;;4.90;99.90;;;;;;4969739;28;20059;-28
2021/12/28 03:36:06;;;;;;;78.17;39.10;;;4.90;99.90;;;;;;4975528;28;20485;-28
2021/12/28 03:38:33;;;;;;;75.87;37.23;;;4.90;99.90;;;;;;4981162;28;20046;-29
2021/12/28 03:41:00;;;;;;;83.30;39.40;;;4.90;99.90;;;;;;4991785;28;20046;-28
2021/12/28 03:43:25;;;;;;;101.80;41.50;;;4.90;99.90;;;;;;4989055;28;20054;-29
2021/12/28 03:45:52;;;;;;;81.23;40.13;;;5.00;99.90;;;;;;4991181;28;20409;-28
2021/12/28 03:48:18;;;;;;;84.17;39.47;;;5.00;99.90;;;;;;4973397;28;20393;-28
2021/12/28 03:50:44;;;;;;;91.57;42.30;;;5.00;99.90;;;;;;4991225;28;20247;-28
2021/12/28 03:53:10;;;;;;;81.43;39.83;;;5.00;99.90;;;;;;4990268;28;20042;-28
2021/12/28 03:55:36;;;;;;;96.17;41.67;;;5.00;99.90;;;;;;4991122;28;20112;-29
2021/12/28 03:58:04;;;;;;;79.83;40.00;;;5.00;99.90;;;;;;4974875;28;20129;-28
2021/12/28 04:00:35;;;;;;;92.23;40.53;;;5.00;99.90;;;;;;4989132;28;20100;-28
2021/12/28 04:03:01;;;;;;;69.68;38.72;;;5.10;99.90;;;;;;4990558;28;20080;-29
2021/12/28 04:05:27;;;;;;;75.73;37.97;;;5.10;99.90;;;;;;4990958;28;20078;-29
2021/12/28 04:07:53;;;;;;;84.80;40.53;;;5.10;99.90;;;;;;4974668;28;20043;-29
2021/12/28 04:10:28;;;;;;;101.03;43.13;;;5.10;99.90;;;;;;4990997;28;20121;-28
2021/12/28 04:12:54;;;;;;;94.50;41.83;;;5.10;99.90;;;;;;4989688;28;20054;-29
2021/12/28 04:15:19;;;;;;;86.23;41.23;;;5.10;99.90;;;;;;4989200;28;20054;-29
2021/12/28 04:17:45;;;;;;;81.63;42.13;;;5.20;99.90;;;;;;4974131;28;20038;-28
2021/12/28 04:20:16;;;;;;;104.47;42.83;;;5.20;99.90;;;;;;4989308;28;20058;-29
2021/12/28 04:22:42;;;;;;;90.57;42.17;;;5.20;99.90;;;;;;4987096;28;20053;-28
2021/12/28 04:25:09;;;;;;;85.97;41.90;;;5.20;99.90;;;;;;4970849;28;20047;-28
2021/12/28 04:27:35;;;;;;;82.73;40.43;;;5.20;99.90;;;;;;4954681;28;20430;-28
2021/12/28 04:30:02;;;;;;;102.40;42.60;;;5.20;99.90;;;;;;4971109;28;20061;-28
2021/12/28 04:32:28;;;;;;;83.47;40.90;;;5.20;99.90;;;;;;4973927;28;20068;-28
2021/12/28 04:34:54;;;;;;;109.33;43.97;;;5.30;99.90;;;;;;4989483;28;20122;-29
2021/12/28 04:37:19;;;;;;;103.43;41.37;;;5.30;99.90;;;;;;4974687;28;20038;-29
2021/12/28 04:39:45;;;;;;;123.07;45.07;;;5.30;99.90;;;;;;4988798;28;20081;-29
2021/12/28 04:42:11;;;;;;;103.10;44.83;;;5.30;99.90;;;;;;4989355;28;20046;-28
2021/12/28 04:44:36;;;;;;;91.57;42.90;;;5.30;99.90;;;;;;4990681;28;20483;-29
2021/12/28 04:47:02;;;;;;;81.10;41.33;;;5.30;99.90;;;;;;4993431;28;20520;-28
2021/12/28 04:49:29;;;;;;;93.43;42.57;;;5.40;99.90;;;;;;4972769;28;20050;-28
2021/12/28 04:51:55;;;;;;;88.10;39.60;;;5.40;99.90;;;;;;4989949;28;20050;-28
2021/12/28 04:54:22;;;;;;;89.77;40.80;;;5.40;99.90;;;;;;4988867;28;20051;-28
2021/12/28 04:56:48;;;;;;;87.23;41.47;;;5.40;99.90;;;;;;4974795;28;20042;-29
2021/12/28 04:59:16;;;;;;;99.63;40.90;;;5.40;99.90;;;;;;4971264;28;20053;-29
2021/12/28 05:01:42;;;;;;;103.67;41.80;;;5.50;99.90;;;;;;5005260;28;20601;-29
2021/12/28 05:04:08;;;;;;;100.97;41.60;;;5.50;99.90;;;;;;5003841;28;20498;-29
2021/12/28 05:06:35;;;;;;;102.60;43.20;;;5.50;99.90;;;;;;4975441;28;20259;-29
2021/12/28 05:09:06;;;;;;;103.07;43.23;;;5.40;99.90;;;;;;4986975;28;20054;-28
2021/12/28 05:11:33;;;;;;;107.40;42.53;;;5.50;99.90;;;;;;5011233;28;20045;-28
2021/12/28 05:13:59;;;;;;;114.30;44.20;;;5.50;99.90;;;;;;5009543;28;20526;-29
2021/12/28 05:16:29;;;;;;;107.10;44.83;;;5.60;99.90;;;;;;4994221;28;20034;-29
2021/12/28 05:18:55;;;;;;;97.80;42.40;;;5.60;99.90;;;;;;5004680;28;20408;-29
2021/12/28 05:21:20;;;;;;;107.73;44.80;;;5.60;99.90;;;;;;4990929;28;20049;-29
2021/12/28 05:23:46;;;;;;;109.47;44.47;;;5.60;99.90;;;;;;4990322;28;20050;-29
2021/12/28 05:26:12;;;;;;;117.03;45.57;;;5.60;99.90;;;;;;5000179;28;20037;-29
2021/12/28 05:28:37;;;;;;;108.83;44.20;;;5.60;99.90;;;;;;5001760;28;20050;-29
2021/12/28 05:31:03;;;;;;;90.77;41.90;;;5.70;99.90;;;;;;5009124;28;20049;-29
2021/12/28 05:33:29;;;;;;;106.77;43.37;;;5.70;99.90;;;;;;5001095;28;20061;-29
2021/12/28 05:35:55;;;;;;;100.03;43.23;;;5.70;99.90;;;;;;4971328;28;20065;-28
2021/12/28 05:38:20;;;;;;;106.47;44.70;;;5.70;99.90;;;;;;4973452;28;20043;-29
2021/12/28 05:40:46;;;;;;;108.17;45.70;;;5.70;99.90;;;;;;4989424;28;20133;-28
2021/12/28 05:43:13;;;;;;;94.43;43.87;;;5.70;99.90;;;;;;4988244;28;20074;-28
2021/12/28 05:45:40;;;;;;;111.37;46.37;;;5.70;99.90;;;;;;4970449;28;20470;-29
2021/12/28 05:48:05;;;;;;;99.83;43.57;;;5.70;99.90;;;;;;4965177;28;20387;-29
2021/12/28 05:50:31;;;;;;;101.73;46.43;;;5.80;99.90;;;;;;4969544;28;20053;-28
2021/12/28 05:52:57;;;;;;;96.43;44.63;;;5.80;99.90;;;;;;4968716;28;20473;-28
2021/12/28 05:55:23;;;;;;;97.13;43.43;;;5.80;99.90;;;;;;4969263;28;20050;-29
2021/12/28 05:57:48;;;;;;;85.97;41.03;;;5.80;99.90;;;;;;4953372;28;20130;-28
2021/12/28 06:00:14;;;;;;;83.73;41.67;;;5.80;99.90;;;;;;4971290;28;20042;-29
2021/12/28 06:02:40;;;;;;;83.93;40.87;;;5.80;99.90;;;;;;4969059;28;20109;-29
2021/12/28 06:05:06;;;;;;;82.67;39.83;;;5.80;99.90;;;;;;4947705;28;20046;-29
2021/12/28 06:07:32;;;;;;;86.33;40.27;;;5.80;99.90;;;;;;4972334;28;20418;-29
2021/12/28 06:09:57;;;;;;;78.10;37.90;;;5.80;99.90;;;;;;4981030;28;20049;-29
2021/12/28 06:12:24;;;;;;;75.03;38.13;;;5.80;99.90;;;;;;4968733;28;20152;-29
2021/12/28 06:14:51;;;;;;;70.87;37.17;;;5.80;99.90;;;;;;4958868;28;20053;-29
2021/12/28 06:17:17;;;;;;;72.93;36.53;;;5.80;99.90;;;;;;4972616;28;20383;-28
2021/12/28 06:19:43;;;;;;;66.87;36.57;;;5.70;99.90;;;;;;4988324;28;20105;-29
2021/12/28 06:22:09;;;;;;;68.50;36.30;;;5.80;99.90;;;;;;4987879;28;20050;-28
2021/12/28 06:24:35;;;;;;;66.93;36.23;;;5.70;99.90;;;;;;4970363;28;20114;-28
2021/12/28 06:27:00;;;;;;;63.83;35.33;;;5.80;99.90;;;;;;4953649;28;20055;-29
2021/12/28 06:29:26;;;;;;;61.53;34.33;;;5.70;99.90;;;;;;4968347;28;20475;-29
2021/12/28 06:31:52;;;;;;;66.97;35.17;;;5.70;99.90;;;;;;4969069;28;20610;-28
2021/12/28 06:34:18;;;;;;;61.60;34.53;;;5.70;99.90;;;;;;4950654;28;20055;-29
2021/12/28 06:36:43;;;;;;;61.10;34.13;;;5.70;99.90;;;;;;4953782;28;20137;-29
2021/12/28 06:39:11;;;;;;;56.43;33.13;;;5.70;99.90;;;;;;4969086;28;20043;-29
2021/12/28 06:41:38;;;;;;;54.50;32.63;;;5.50;99.90;;;;;;4968734;28;20529;-29
2021/12/28 06:44:05;;;;;;;54.70;32.60;;;5.70;99.90;;;;;;4968093;28;20533;-28
2021/12/28 06:46:31;;;;;;;54.73;32.17;;;5.60;99.90;;;;;;4940938;28;20529;-29
2021/12/28 06:48:57;;;;;;;50.30;31.60;;;5.60;99.90;;;;;;4962084;28;20130;-28
2021/12/28 06:51:23;;;;;;;46.60;30.17;;;5.60;99.90;;;;;;4970543;28;20046;-28
2021/12/28 06:53:49;;;;;;;51.67;31.80;;;5.60;99.90;;;;;;4987481;28;20049;-29
2021/12/28 06:56:15;;;;;;;51.30;31.20;;;5.60;99.90;;;;;;4979137;28;20379;-29
2021/12/28 06:58:41;;;;;;;52.43;30.87;;;5.60;99.90;;;;;;4967432;28;20038;-28
2021/12/28 07:01:07;;;;;;;49.13;30.70;;;5.60;99.90;;;;;;4985111;28;20057;-29
2021/12/28 07:03:33;;;;;;;46.73;29.60;;;5.50;99.90;;;;;;4971831;28;20117;-28
2021/12/28 07:05:59;;;;;;;46.47;29.00;;;5.60;99.90;;;;;;4991524;28;20508;-28
2021/12/28 07:08:25;;;;;;;43.47;27.17;;;5.50;99.90;;;;;;4975903;28;20054;-28
2021/12/28 07:10:50;;;;;;;45.93;27.40;;;5.50;99.90;;;;;;4976884;28;20402;-29
2021/12/28 07:13:16;;;;;;;46.67;27.57;;;5.50;99.90;;;;;;4953900;28;20050;-29
2021/12/28 07:15:42;;;;;;;39.60;26.13;;;5.40;99.90;;;;;;4969055;28;20185;-28
2021/12/28 07:18:07;;;;;;;42.70;26.67;;;5.40;99.90;;;;;;4957769;28;20056;-28
2021/12/28 07:20:33;;;;;;;38.30;25.17;;;5.40;99.90;;;;;;4991960;28;20078;-29
2021/12/28 07:22:59;;;;;;;43.63;25.63;;;5.40;99.90;;;;;;4985462;28;20039;-28
2021/12/28 07:25:24;;;;;;;41.57;24.33;;;5.40;99.90;;;;;;4972279;28;20398;-28
2021/12/28 07:27:50;;;;;;;40.60;24.93;;;5.30;99.90;;;;;;4938377;28;20426;-29
2021/12/28 07:30:16;;;;;;;39.90;23.70;;;5.30;99.90;;;;;;4954595;28;20057;-29
2021/12/28 07:32:43;;;;;;;34.93;22.43;;;5.30;99.90;;;;;;4971660;28;20055;-29
2021/12/28 07:35:11;;;;;;;37.33;23.07;;;5.30;99.90;;;;;;4991383;28;20108;-28
2021/12/28 07:37:37;;;;;;;37.23;23.83;;;5.30;99.90;;;;;;4957935;28;20148;-28
2021/12/28 07:40:05;;;;;;;37.80;23.73;;;5.20;99.90;;;;;;4991553;28;20411;-28
2021/12/28 07:42:30;;;;;;;40.57;23.47;;;5.20;99.90;;;;;;4990360;28;20069;-28
2021/12/28 07:44:56;;;;;;;36.97;23.00;;;5.20;99.90;;;;;;4973804;28;20141;-28
2021/12/28 07:47:22;;;;;;;37.57;22.97;;;5.10;99.90;;;;;;4981313;28;20307;-29
2021/12/28 07:49:47;;;;;;;37.97;23.30;;;5.10;99.90;;;;;;4993062;28;20296;-28
2021/12/28 07:52:13;;;;;;;38.13;23.13;;;5.10;99.90;;;;;;4990286;28;20054;-28
2021/12/28 07:54:39;;;;;;;37.07;22.30;;;5.10;99.90;;;;;;4991425;28;20050;-29
2021/12/28 07:57:05;;;;;;;36.93;22.70;;;5.10;99.90;;;;;;4974737;28;20129;-29
2021/12/28 07:59:30;;;;;;;36.03;22.57;;;5.10;99.90;;;;;;4997501;28;20615;-29
2021/12/28 08:01:56;;;;;;;37.57;22.10;;;5.10;99.90;;;;;;5011995;28;20042;-29
2021/12/28 08:04:22;;;;;;;35.43;21.63;;;5.00;99.90;;;;;;5003221;28;20038;-29
2021/12/28 08:06:47;;;;;;;33.27;20.97;;;5.10;99.90;;;;;;4975511;28;20538;-29
2021/12/28 08:09:13;;;;;;;36.90;20.90;;;5.10;99.90;;;;;;4991381;28;20109;-28
2021/12/28 08:11:39;;;;;;;36.77;20.93;;;5.10;99.90;;;;;;4992166;28;20395;-28
2021/12/28 08:14:05;;;;;;;38.40;21.43;;;5.10;99.90;;;;;;5009488;28;20131;-28
2021/12/28 08:16:31;;;;;;;34.30;20.20;;;5.10;99.90;;;;;;4996630;28;20396;-29
2021/12/28 08:18:57;;;;;;;37.23;20.67;;;5.10;99.90;;;;;;5007159;28;20523;-29
2021/12/28 08:21:23;;;;;;;41.83;20.67;;;5.20;99.90;;;;;;4992419;28;20042;-28
2021/12/28 08:23:48;;;;;;;36.73;19.40;;;5.10;99.90;;;;;;4979970;28;20046;-28
2021/12/28 08:26:16;;;;;;;36.43;20.57;;;5.20;99.90;;;;;;4981106;28;20092;-28
2021/12/28 08:28:43;;;;;;;40.53;19.70;;;5.20;99.90;;;;;;4985106;28;20144;-28
2021/12/28 08:31:09;;;;;;;38.37;19.53;;;5.20;99.90;;;;;;4972814;28;20086;-28
2021/12/28 08:33:34;;;;;;;37.87;19.87;;;5.20;99.90;;;;;;4989453;28;20413;-29
2021/12/28 08:36:00;;;;;;;41.97;18.87;;;5.30;99.90;;;;;;4976734;28;20042;-29
2021/12/28 08:38:26;;;;;;;34.00;18.97;;;5.30;99.90;;;;;;4956628;28;20050;-29
2021/12/28 08:40:53;;;;;;;44.10;19.73;;;5.30;99.90;;;;;;4972922;28;20046;-29
2021/12/28 08:43:19;;;;;;;36.30;17.80;;;5.30;99.90;;;;;;4971641;28;20497;-29
2021/12/28 08:45:45;;;;;;;38.47;17.87;;;5.40;99.90;;;;;;4991235;28;20118;-29
2021/12/28 08:48:11;;;;;;;38.83;17.00;;;5.40;99.90;;;;;;4984643;28;20653;-29
2021/12/28 08:50:38;;;;;;;36.10;17.77;;;5.50;99.90;;;;;;5006192;28;20139;-28
2021/12/28 08:53:05;;;;;;;42.27;18.03;;;5.40;99.90;;;;;;4986960;28;20298;-28
2021/12/28 08:55:32;;;;;;;44.87;17.17;;;5.50;99.90;;;;;;5005926;28;20410;-29
2021/12/28 08:57:58;;;;;;;33.30;16.07;;;5.50;99.90;;;;;;4985453;28;20049;-28
2021/12/28 09:00:27;;;;;;;35.83;16.83;;;5.50;99.90;;;;;;5007948;28;20044;-28
2021/12/28 09:02:55;;;;;;;34.57;16.60;;;5.50;99.90;;;;;;4987134;28;20583;-28
2021/12/28 09:05:21;;;;;;;34.27;16.43;;;5.60;99.90;;;;;;4988491;28;20046;-29
2021/12/28 09:07:47;;;;;;;41.03;16.80;;;5.60;99.90;;;;;;4975855;28;20073;-29
2021/12/28 09:10:13;;;;;;;34.30;16.13;;;5.60;99.90;;;;;;4978111;28;20576;-28
2021/12/28 09:12:39;;;;;;;41.93;16.50;;;5.70;99.90;;;;;;4984238;28;20490;-29
2021/12/28 09:15:07;;;;;;;35.87;16.37;;;5.70;99.90;;;;;;4999257;28;20053;-29
2021/12/28 09:17:35;;;;;;;37.47;16.30;;;5.80;99.90;;;;;;4984721;28;20054;-29
2021/12/28 09:20:05;;;;;;;34.87;15.83;;;5.80;99.90;;;;;;5004786;28;20567;-29
2021/12/28 09:22:31;;;;;;;34.97;15.70;;;5.80;99.90;;;;;;4997795;28;20054;-29
2021/12/28 09:24:56;;;;;;;41.37;16.43;;;5.80;99.90;;;;;;4985365;28;20053;-28
2021/12/28 09:27:22;;;;;;;38.47;16.40;;;6.00;99.90;;;;;;4971386;28;20100;-29
2021/12/28 09:29:48;;;;;;;45.93;16.23;;;6.00;99.90;;;;;;4970778;28;20045;-29
2021/12/28 09:32:13;;;;;;;35.57;15.60;;;6.00;99.90;;;;;;4984646;28;20372;-28
2021/12/28 09:34:42;;;;;;;37.97;15.50;;;6.10;99.90;;;;;;4971630;28;20054;-29
2021/12/28 09:37:08;;;;;;;34.03;14.03;;;6.20;99.90;;;;;;4954076;28;20058;-28
2021/12/28 09:39:33;;;;;;;33.57;14.77;;;6.20;99.90;;;;;;4968564;28;20055;-29
2021/12/28 09:42:02;;;;;;;38.83;14.23;;;6.30;99.90;;;;;;4983547;28;20046;-29
2021/12/28 09:44:32;;;;;;;31.47;13.70;;;6.30;99.90;;;;;;4982030;28;20046;-28
2021/12/28 09:46:58;;;;;;;31.97;13.57;;;6.30;99.90;;;;;;4970595;28;20061;-29
2021/12/28 09:49:26;;;;;;;32.63;12.90;;;6.40;99.90;;;;;;4967487;28;20205;-28
2021/12/28 09:51:51;;;;;;;31.00;12.77;;;6.40;99.90;;;;;;4972137;28;20084;-29
2021/12/28 09:54:17;;;;;;;38.00;14.27;;;6.40;99.90;;;;;;4985268;28;20499;-28
2021/12/28 09:56:43;;;;;;;43.73;13.53;;;6.40;99.90;;;;;;4972583;28;20046;-29
2021/12/28 09:59:09;;;;;;;35.07;12.97;;;6.40;99.90;;;;;;4967790;28;20050;-29
2021/12/28 10:01:35;;;;;;;31.93;13.27;;;6.40;99.90;;;;;;4975556;28;20042;-29
2021/12/28 10:04:01;;;;;;;39.83;13.90;;;6.50;99.90;;;;;;4951606;28;20053;-28
2021/12/28 10:06:29;;;;;;;33.97;11.90;;;6.50;99.90;;;;;;4974126;28;20068;-29
2021/12/28 10:09:23;;;;;;;27.90;12.20;;;6.50;99.90;;;;;;4982077;28;20108;-29
2021/12/28 10:11:53;;;;;;;30.87;12.07;;;6.50;99.90;;;;;;4957432;28;20078;-29
2021/12/28 10:14:24;;;;;;;28.17;11.17;;;6.50;99.90;;;;;;4979584;28;20077;-28
2021/12/28 10:16:51;;;;;;;31.77;11.43;;;6.50;99.90;;;;;;4947378;28;20101;-29
2021/12/28 10:19:41;;;;;;;26.57;11.50;;;6.50;99.90;;;;;;4983953;28;20053;-29
2021/12/28 10:22:20;;;;;;;29.30;10.57;;;6.60;99.90;;;;;;4981606;28;20502;-29
2021/12/28 10:24:48;;;;;;;25.70;10.77;;;6.60;99.90;;;;;;4985326;28;20205;-29
2021/12/28 10:27:16;;;;;;;24.77;10.47;;;6.60;99.90;;;;;;4963534;28;20042;-29
2021/12/28 10:29:42;;;;;;;32.63;10.20;;;6.60;99.90;;;;;;4965481;28;20058;-29
2021/12/28 10:32:29;;;;;;;30.33;10.63;;;6.70;99.90;;;;;;4969767;28;20050;-29
2021/12/28 10:35:01;;;;;;;27.27;10.13;;;6.70;99.90;;;;;;4969117;28;20774;-28
2021/12/28 10:37:33;;;;;;;25.60;10.20;;;6.60;99.90;;;;;;4958252;28;20061;-30
2021/12/28 10:40:00;;;;;;;22.60;9.67;;;6.70;99.90;;;;;;4958947;28;20054;-29
2021/12/28 10:42:40;;;;;;;27.53;10.83;;;6.70;99.90;;;;;;4988314;28;20073;-29
2021/12/28 10:45:10;;;;;;;24.20;10.37;;;6.70;99.90;;;;;;4988137;28;20081;-28
2021/12/28 10:47:36;;;;;;;20.40;10.30;;;6.70;99.90;;;;;;4967989;28;20093;-28
2021/12/28 10:50:19;;;;;;;25.30;10.20;;;6.70;99.90;;;;;;4972170;28;20062;-29
2021/12/28 10:52:50;;;;;;;28.23;10.87;;;6.70;99.90;;;;;;4960439;28;20516;-29
2021/12/28 10:55:22;;;;;;;26.75;9.77;;;6.80;99.90;;;;;;4983224;28;20090;-29
2021/12/28 10:57:49;;;;;;;28.43;10.10;;;6.80;99.90;;;;;;4954864;28;20050;-29
2021/12/28 11:00:32;;;;;;;22.53;9.13;;;6.80;99.90;;;;;;4989232;28;20058;-29
2021/12/28 11:03:16;;;;;;;29.70;10.93;;;6.80;99.90;;;;;;4972194;28;20046;-29
2021/12/28 11:05:49;;;;;;;22.00;10.33;;;6.80;99.90;;;;;;4969540;28;20074;-28
2021/12/28 11:08:16;;;;;;;22.67;9.33;;;6.80;99.90;;;;;;4967572;28;20043;-29
2021/12/28 11:10:51;;;;;;;21.83;9.70;;;6.80;99.90;;;;;;4979353;28;20046;-29
2021/12/28 11:13:20;;;;;;;24.63;10.43;;;7.00;99.90;;;;;;4987439;28;20046;-29
2021/12/28 11:15:46;;;;;;;25.20;10.30;;;6.80;99.90;;;;;;4971416;28;20507;-29
2021/12/28 11:18:38;;;;;;;25.67;10.03;;;6.80;99.90;;;;;;4940411;28;20138;-29
2021/12/28 11:21:16;;;;;;;23.25;10.00;;;6.90;99.90;;;;;;4969206;28;20387;-29
2021/12/28 11:23:44;;;;;;;28.37;10.43;;;6.90;99.90;;;;;;4968965;28;20051;-29
2021/12/28 11:26:09;;;;;;;24.57;10.37;;;6.80;99.90;;;;;;4960913;28;20047;-29
2021/12/28 11:28:37;;;;;;;17.13;9.77;;;6.90;99.90;;;;;;4966376;28;20050;-29
2021/12/28 11:31:18;;;;;;;17.37;8.83;;;6.90;99.90;;;;;;4969100;28;20043;-29
2021/12/28 11:34:06;;;;;;;23.15;10.15;;;6.90;99.90;;;;;;4975904;28;20502;-29
2021/12/28 11:36:39;;;;;;;19.20;9.83;;;6.90;99.90;;;;;;4940125;28;20724;-29
2021/12/28 11:39:09;;;;;;;18.53;9.43;;;6.90;99.90;;;;;;4977496;28;20053;-29
2021/12/28 11:41:35;;;;;;;19.27;9.07;;;6.90;99.90;;;;;;4988106;28;20034;-29
2021/12/28 11:44:01;;;;;;;20.07;9.17;;;6.90;99.90;;;;;;4985327;28;20053;-29
2021/12/28 11:46:29;;;;;;;15.50;9.33;;;6.90;99.90;;;;;;4972216;28;20058;-29
2021/12/28 11:48:55;;;;;;;15.73;8.73;;;7.00;99.90;;;;;;4981505;28;20053;-29
2021/12/28 11:51:22;;;;;;;17.97;9.33;;;7.00;99.90;;;;;;4987068;28;20506;-29
2021/12/28 11:53:49;;;;;;;15.43;9.27;;;7.00;99.90;;;;;;4972586;28;20082;-29
2021/12/28 11:56:18;;;;;;;19.67;9.67;;;7.00;99.90;;;;;;4970579;28;20474;-30
2021/12/28 11:58:54;;;;;;;18.30;9.27;;;7.00;99.90;;;;;;4974100;28;20570;-29
2021/12/28 12:01:39;;;;;;;17.67;9.57;;;7.00;99.90;;;;;;4983216;28;20375;-29
2021/12/28 12:04:34;;;;;;;18.27;9.50;;;7.10;99.90;;;;;;4983641;28;20046;-29
2021/12/28 12:07:15;;;;;;;14.93;9.27;;;7.10;99.90;;;;;;4955249;28;20128;-29
2021/12/28 12:09:53;;;;;;;19.55;9.30;;;7.10;99.90;;;;;;4967485;28;20273;-29
2021/12/28 12:12:27;;;;;;;16.07;9.13;;;7.10;99.90;;;;;;4986100;28;20046;-29
2021/12/28 12:14:58;;;;;;;15.30;9.40;;;7.10;99.90;;;;;;4964906;28;20081;-29
2021/12/28 12:17:27;;;;;;;12.23;9.23;;;7.10;99.90;;;;;;4967431;28;20125;-30
2021/12/28 12:19:57;;;;;;;18.17;10.33;;;7.10;99.90;;;;;;4984361;28;20596;-29
2021/12/28 12:22:32;;;;;;;16.20;10.03;;;7.10;99.90;;;;;;4968707;28;20497;-29
2021/12/28 12:25:06;;;;;;;14.53;9.97;;;7.20;99.90;;;;;;4987691;28;20481;-30
2021/12/28 12:27:54;;;;;;;15.40;10.07;;;7.10;99.90;;;;;;4971808;28;20038;-29
2021/12/28 12:30:23;;;;;;;15.73;9.47;;;7.20;99.90;;;;;;4970176;28;20058;-29
2021/12/28 12:32:58;;;;;;;15.33;9.70;;;7.20;99.90;;;;;;4987202;28;20046;-29
2021/12/28 12:35:30;;;;;;;14.20;9.40;;;7.20;99.90;;;;;;4988144;28;20054;-29
2021/12/28 12:37:57;;;;;;;13.37;9.80;;;7.20;99.90;;;;;;4972209;28;20046;-29
2021/12/28 12:40:43;;;;;;;16.13;9.40;;;7.20;99.90;;;;;;4987227;28;20459;-29
2021/12/28 12:43:11;;;;;;;15.33;9.40;;;7.20;99.90;;;;;;4986060;28;20047;-29
2021/12/28 12:46:17;;;;;;;14.70;9.27;;;7.20;99.90;;;;;;4985267;28;20042;-29